Time;durP1;ratioP1;P1;durP2;ratioP2;P2;SDS_P1;SDS_P2;PMS_P1;PMS_P2;Temp;Humidity;BMP_temperature;BMP_pressure;BME280_temperature;BME280_humidity;BME280_pressure;Samples;Min_cycle;Max_cycle;Signal;HPM_P1;HPM_P2
2022/03/02 00:01:48;;;;;;;39.25;24.15;;;5.80;99.90;;;;;;5091331;28;20048;-46
2022/03/02 00:04:14;;;;;;;36.10;23.92;;;5.80;99.90;;;;;;5090151;28;20044;-43
2022/03/02 00:06:40;;;;;;;39.75;25.35;;;5.90;99.90;;;;;;5091100;28;20028;-46
2022/03/02 00:09:06;;;;;;;39.53;24.38;;;5.70;99.90;;;;;;5090786;28;20069;-45
2022/03/02 00:11:31;;;;;;;37.70;24.23;;;5.80;99.90;;;;;;5090696;28;20059;-45
2022/03/02 00:14:00;;;;;;;38.17;25.08;;;5.70;99.90;;;;;;5091196;28;20431;-44
2022/03/02 00:16:28;;;;;;;37.22;24.95;;;5.70;99.90;;;;;;5091175;28;20517;-47
2022/03/02 00:18:55;;;;;;;38.63;24.95;;;5.80;99.90;;;;;;5091179;28;20508;-48
2022/03/02 00:21:21;;;;;;;40.20;24.58;;;5.80;99.90;;;;;;5090860;28;20564;-45
2022/03/02 00:23:47;;;;;;;40.30;24.92;;;5.80;99.90;;;;;;5090884;28;20035;-43
2022/03/02 00:26:13;;;;;;;37.80;24.55;;;5.80;99.90;;;;;;5090923;28;20036;-44
2022/03/02 00:28:39;;;;;;;39.97;24.35;;;5.80;99.90;;;;;;5090830;28;20036;-44
2022/03/02 00:31:04;;;;;;;40.45;24.30;;;5.70;99.90;;;;;;5089704;28;20040;-45
2022/03/02 00:33:30;;;;;;;38.67;24.42;;;5.70;99.90;;;;;;5088539;28;20036;-44
2022/03/02 00:35:56;;;;;;;40.15;24.45;;;5.80;99.90;;;;;;5088024;28;20470;-44
2022/03/02 00:38:21;;;;;;;38.60;24.27;;;5.80;99.90;;;;;;5090609;28;20471;-46
2022/03/02 00:40:47;;;;;;;43.20;24.90;;;5.70;99.90;;;;;;5090177;28;20548;-47
2022/03/02 00:43:13;;;;;;;38.80;24.02;;;5.70;99.90;;;;;;5090491;28;20489;-45
2022/03/02 00:45:38;;;;;;;38.20;24.02;;;5.70;99.90;;;;;;5090629;28;20068;-42
2022/03/02 00:48:06;;;;;;;38.38;24.08;;;5.70;99.90;;;;;;5090495;28;20509;-43
2022/03/02 00:50:32;;;;;;;39.67;24.50;;;5.80;99.90;;;;;;5089932;28;20032;-44
2022/03/02 00:52:58;;;;;;;39.58;23.92;;;5.80;99.90;;;;;;5090325;28;20096;-44
2022/03/02 00:55:24;;;;;;;40.55;24.98;;;5.70;99.90;;;;;;5090432;28;20047;-46
2022/03/02 00:57:49;;;;;;;41.47;25.27;;;5.70;99.90;;;;;;5090171;28;20032;-46
2022/03/02 01:00:16;;;;;;;40.45;23.92;;;5.70;99.90;;;;;;5090627;28;20080;-48
2022/03/02 01:02:42;;;;;;;40.70;24.85;;;5.80;99.90;;;;;;5089754;28;20048;-47
2022/03/02 01:05:08;;;;;;;40.80;24.33;;;5.70;99.90;;;;;;5088762;28;20054;-46
2022/03/02 01:07:35;;;;;;;38.83;25.08;;;5.70;99.90;;;;;;5089818;28;20048;-44
2022/03/02 01:10:01;;;;;;;40.58;25.42;;;5.60;99.90;;;;;;5089534;28;20043;-49
2022/03/02 01:12:27;;;;;;;37.67;23.77;;;5.60;99.90;;;;;;5090122;28;20081;-43
2022/03/02 01:14:53;;;;;;;43.70;25.38;;;5.80;99.90;;;;;;5090406;28;20044;-43
2022/03/02 01:17:20;;;;;;;43.67;25.63;;;5.70;99.90;;;;;;5088238;28;20455;-45
2022/03/02 01:19:48;;;;;;;40.58;25.13;;;5.60;99.90;;;;;;5087420;28;20044;-43
2022/03/02 01:22:14;;;;;;;39.63;24.13;;;5.70;99.90;;;;;;5089176;28;20097;-46
2022/03/02 01:24:40;;;;;;;39.75;25.00;;;5.70;99.90;;;;;;5089849;28;20044;-45
2022/03/02 01:27:05;;;;;;;39.75;25.33;;;5.50;99.90;;;;;;5089999;28;20071;-45
2022/03/02 01:29:33;;;;;;;40.50;25.92;;;5.70;99.90;;;;;;5089655;28;20044;-44
2022/03/02 01:32:00;;;;;;;40.47;24.92;;;5.50;99.90;;;;;;5089993;28;20036;-49
2022/03/02 01:34:26;;;;;;;41.55;25.00;;;5.60;99.90;;;;;;5090028;28;20090;-43
2022/03/02 01:36:52;;;;;;;39.97;25.17;;;5.50;99.90;;;;;;5090224;28;20067;-46
2022/03/02 01:39:17;;;;;;;41.13;24.48;;;5.50;99.90;;;;;;5090024;28;20060;-44
2022/03/02 01:41:43;;;;;;;42.65;24.65;;;5.60;99.90;;;;;;5089269;28;20089;-46
2022/03/02 01:44:09;;;;;;;41.00;25.63;;;5.50;99.90;;;;;;5090100;28;20036;-44
2022/03/02 01:46:35;;;;;;;41.20;25.58;;;5.50;99.90;;;;;;5089914;28;20042;-43
2022/03/02 01:49:01;;;;;;;43.35;26.10;;;5.60;99.90;;;;;;5089350;28;20035;-45
2022/03/02 01:51:27;;;;;;;41.25;25.77;;;5.60;99.90;;;;;;5089864;28;20047;-44
2022/03/02 01:53:53;;;;;;;40.42;25.70;;;5.50;99.90;;;;;;5089745;28;20395;-49
2022/03/02 01:56:19;;;;;;;42.42;26.88;;;5.50;99.90;;;;;;5088604;28;20064;-47
2022/03/02 01:58:45;;;;;;;42.08;26.67;;;5.50;99.90;;;;;;5089841;28;20051;-44
2022/03/02 02:01:12;;;;;;;42.08;26.27;;;5.50;99.90;;;;;;5088672;28;20072;-44
2022/03/02 02:03:38;;;;;;;41.63;26.20;;;5.50;99.90;;;;;;5087130;28;20093;-44
2022/03/02 02:06:05;;;;;;;43.42;27.05;;;5.50;99.90;;;;;;5089450;28;20032;-42
2022/03/02 02:08:32;;;;;;;41.05;25.85;;;5.40;99.90;;;;;;5088266;28;20043;-44
2022/03/02 02:10:59;;;;;;;43.40;25.58;;;5.50;99.90;;;;;;5089148;28;20480;-45
2022/03/02 02:13:26;;;;;;;41.45;25.90;;;5.40;99.90;;;;;;5089687;28;20491;-47
2022/03/02 02:15:54;;;;;;;44.70;26.75;;;5.50;99.90;;;;;;5089899;28;20494;-45
2022/03/02 02:18:20;;;;;;;43.45;26.67;;;5.50;99.90;;;;;;5090906;28;20078;-43
2022/03/02 02:20:46;;;;;;;42.95;26.10;;;5.40;99.90;;;;;;5092932;28;20620;-44
2022/03/02 02:23:12;;;;;;;43.15;25.52;;;5.40;99.90;;;;;;5092775;28;20083;-44
2022/03/02 02:25:38;;;;;;;41.00;25.80;;;5.50;99.90;;;;;;5093398;28;20391;-47
2022/03/02 02:28:06;;;;;;;40.17;26.27;;;5.50;99.90;;;;;;5091638;28;20040;-46
2022/03/02 02:30:31;;;;;;;42.45;26.40;;;5.40;99.90;;;;;;5093261;28;20028;-44
2022/03/02 02:32:57;;;;;;;43.75;26.30;;;5.40;99.90;;;;;;5092963;28;20044;-44
2022/03/02 02:35:25;;;;;;;43.10;27.33;;;5.40;99.90;;;;;;5092919;28;20028;-45
2022/03/02 02:37:51;;;;;;;43.17;26.25;;;5.60;99.90;;;;;;5093091;28;20036;-48
2022/03/02 02:40:20;;;;;;;42.95;26.88;;;5.40;99.90;;;;;;5092550;28;20402;-45
2022/03/02 02:42:48;;;;;;;40.67;26.10;;;5.40;99.90;;;;;;5091452;28;20076;-47
2022/03/02 02:45:17;;;;;;;42.22;25.60;;;5.40;99.90;;;;;;5092984;28;20032;-46
2022/03/02 02:47:44;;;;;;;42.22;25.45;;;5.40;99.90;;;;;;5090536;28;20044;-43
2022/03/02 02:50:17;;;;;;;44.53;26.83;;;5.50;99.90;;;;;;5092517;28;20032;-47
2022/03/02 02:52:43;;;;;;;43.75;26.58;;;5.40;99.90;;;;;;5092565;28;20036;-45
2022/03/02 02:55:13;;;;;;;42.28;26.70;;;5.40;99.90;;;;;;5092699;28;20039;-44
2022/03/02 02:57:39;;;;;;;41.47;25.90;;;5.40;99.90;;;;;;5091725;28;20046;-44
2022/03/02 03:00:08;;;;;;;47.13;26.98;;;5.40;99.90;;;;;;5092781;28;20078;-47
2022/03/02 03:02:34;;;;;;;41.50;25.90;;;5.40;99.90;;;;;;5092420;28;20044;-43
2022/03/02 03:05:00;;;;;;;45.33;27.65;;;5.40;99.90;;;;;;5092433;28;20043;-45
2022/03/02 03:07:25;;;;;;;46.30;27.23;;;5.40;99.90;;;;;;5092221;28;20043;-47
2022/03/02 03:09:51;;;;;;;39.67;25.73;;;5.40;99.90;;;;;;5091971;28;20077;-44
2022/03/02 03:12:17;;;;;;;43.75;26.63;;;5.40;99.90;;;;;;5092344;28;20035;-44
2022/03/02 03:14:43;;;;;;;40.00;26.00;;;5.30;99.90;;;;;;5092438;28;20032;-47
2022/03/02 03:17:09;;;;;;;43.45;26.55;;;5.40;99.90;;;;;;5092215;28;20162;-44
2022/03/02 03:19:35;;;;;;;44.05;26.13;;;5.40;99.90;;;;;;5092403;28;20052;-44
2022/03/02 03:22:05;;;;;;;43.05;26.45;;;5.40;99.90;;;;;;5091844;28;20051;-45
2022/03/02 03:24:32;;;;;;;46.42;27.13;;;5.30;99.90;;;;;;5092258;28;20417;-43
2022/03/02 03:26:57;;;;;;;45.88;26.70;;;5.40;99.90;;;;;;5091823;28;20032;-49
2022/03/02 03:29:23;;;;;;;49.88;27.15;;;5.30;99.90;;;;;;5090680;28;20093;-44
2022/03/02 03:31:49;;;;;;;47.17;27.27;;;5.40;99.90;;;;;;5087692;28;20036;-45
2022/03/02 03:34:14;;;;;;;45.38;27.23;;;5.20;99.90;;;;;;5091637;28;20499;-45
2022/03/02 03:36:41;;;;;;;46.20;27.55;;;5.30;99.90;;;;;;5090530;28;20121;-47
2022/03/02 03:39:07;;;;;;;46.97;27.98;;;5.20;99.90;;;;;;5092016;28;20028;-46
2022/03/02 03:41:33;;;;;;;44.05;27.30;;;5.20;99.90;;;;;;5091540;28;20040;-45
2022/03/02 03:43:59;;;;;;;42.75;26.80;;;5.30;99.90;;;;;;5091783;28;20059;-43
2022/03/02 03:46:25;;;;;;;47.15;27.77;;;5.20;99.90;;;;;;5091644;28;22174;-45
2022/03/02 03:48:51;;;;;;;41.75;26.40;;;5.10;99.90;;;;;;5089545;28;20110;-45
2022/03/02 03:51:16;;;;;;;45.30;27.50;;;5.30;99.90;;;;;;5091632;28;20039;-45
2022/03/02 03:53:42;;;;;;;44.80;26.67;;;5.20;99.90;;;;;;5091207;28;20032;-44
2022/03/02 03:56:08;;;;;;;45.17;26.48;;;5.20;99.90;;;;;;5089890;28;20075;-45
2022/03/02 03:58:34;;;;;;;44.17;27.13;;;5.10;99.90;;;;;;5091579;28;20112;-43
2022/03/02 04:00:59;;;;;;;43.70;27.75;;;5.20;99.90;;;;;;5091343;28;20047;-45
2022/03/02 04:03:25;;;;;;;46.72;27.33;;;5.10;99.90;;;;;;5090795;28;20072;-44
2022/03/02 04:05:51;;;;;;;44.10;26.25;;;5.10;99.90;;;;;;5091321;28;20040;-44
2022/03/02 04:08:17;;;;;;;46.08;28.00;;;5.00;99.90;;;;;;5091367;28;20432;-43
2022/03/02 04:10:45;;;;;;;47.85;27.52;;;5.00;99.90;;;;;;5090489;28;20036;-45
2022/03/02 04:13:11;;;;;;;47.22;27.60;;;5.10;99.90;;;;;;5091158;28;20306;-46
2022/03/02 04:15:38;;;;;;;49.03;29.35;;;5.00;99.90;;;;;;5090801;28;20086;-47
2022/03/02 04:18:06;;;;;;;48.15;27.50;;;5.10;99.90;;;;;;5089156;28;20039;-46
2022/03/02 04:20:32;;;;;;;49.28;27.25;;;5.00;99.90;;;;;;5088320;28;20461;-49
2022/03/02 04:22:58;;;;;;;44.80;28.50;;;5.10;99.90;;;;;;5090892;28;20559;-44
2022/03/02 04:25:24;;;;;;;45.13;27.05;;;5.00;99.90;;;;;;5091121;28;20105;-49
2022/03/02 04:27:50;;;;;;;48.42;29.13;;;5.00;99.90;;;;;;5090653;28;20024;-46
2022/03/02 04:30:16;;;;;;;48.20;28.17;;;5.00;99.90;;;;;;5090702;28;20044;-45
2022/03/02 04:32:42;;;;;;;47.90;28.40;;;5.10;99.90;;;;;;5090649;28;20118;-43
2022/03/02 04:35:10;;;;;;;44.38;27.05;;;5.00;99.90;;;;;;5090929;28;20032;-46
2022/03/02 04:37:36;;;;;;;46.92;27.75;;;4.90;99.90;;;;;;5090860;28;20032;-43
2022/03/02 04:40:04;;;;;;;46.83;28.35;;;5.00;99.90;;;;;;5089715;28;20540;-45
2022/03/02 04:42:29;;;;;;;44.67;28.20;;;4.90;99.90;;;;;;5090573;28;20040;-44
2022/03/02 04:44:55;;;;;;;47.17;29.45;;;4.90;99.90;;;;;;5090443;28;20043;-45
2022/03/02 04:47:21;;;;;;;46.92;28.00;;;4.80;99.90;;;;;;5090410;28;20040;-45
2022/03/02 04:49:46;;;;;;;47.00;28.75;;;5.00;99.90;;;;;;5070966;28;20083;-45
2022/03/02 04:52:12;;;;;;;47.75;27.98;;;4.90;99.90;;;;;;5090864;28;20074;-46
2022/03/02 04:57:22;;;;;;;47.38;28.90;;;4.90;99.90;;;;;;5090885;28;20047;-44
2022/03/02 04:59:48;;;;;;;45.30;27.70;;;4.90;99.90;;;;;;5090876;28;20479;-47
2022/03/02 05:02:14;;;;;;;45.50;27.52;;;4.80;99.90;;;;;;5088888;28;20535;-47
2022/03/02 05:04:39;;;;;;;45.42;27.98;;;4.80;99.90;;;;;;5090422;28;20325;-48
2022/03/02 05:07:05;;;;;;;48.78;28.40;;;4.90;99.90;;;;;;5089038;28;20379;-47
2022/03/02 05:09:31;;;;;;;55.00;29.42;;;4.80;99.90;;;;;;5090074;28;20478;-44
2022/03/02 05:11:56;;;;;;;46.72;28.40;;;4.80;99.90;;;;;;5089763;28;20032;-44
2022/03/02 05:14:22;;;;;;;46.55;28.48;;;4.70;99.90;;;;;;5090071;28;20059;-45
2022/03/02 05:16:48;;;;;;;48.17;29.25;;;4.90;99.90;;;;;;5090147;28;20042;-43
2022/03/02 05:19:13;;;;;;;51.47;30.55;;;4.70;99.90;;;;;;5090098;28;20044;-42
2022/03/02 05:21:39;;;;;;;48.05;28.55;;;4.70;99.90;;;;;;5090009;28;20384;-44
2022/03/02 05:24:05;;;;;;;52.15;29.75;;;4.60;99.90;;;;;;5090351;28;20063;-47
2022/03/02 05:26:31;;;;;;;50.10;28.25;;;4.70;99.90;;;;;;5088400;28;20108;-46
2022/03/02 05:28:57;;;;;;;50.55;29.50;;;4.60;99.90;;;;;;5089870;28;20032;-48
2022/03/02 05:31:24;;;;;;;52.63;29.45;;;4.60;99.90;;;;;;5089992;28;20096;-48
2022/03/02 05:33:51;;;;;;;48.05;28.90;;;4.50;99.90;;;;;;5089786;28;20048;-46
2022/03/02 05:36:18;;;;;;;50.78;28.73;;;4.60;99.90;;;;;;5088672;28;20040;-45
2022/03/02 05:38:43;;;;;;;48.50;28.92;;;4.40;99.90;;;;;;5090224;28;21832;-47
2022/03/02 05:41:09;;;;;;;49.05;29.08;;;4.60;99.90;;;;;;5089480;28;20078;-45
2022/03/02 05:43:35;;;;;;;53.55;28.92;;;4.50;99.90;;;;;;5089945;28;20503;-44
2022/03/02 05:46:00;;;;;;;52.50;29.13;;;4.40;99.90;;;;;;5088476;28;20089;-47
2022/03/02 05:48:26;;;;;;;48.58;29.15;;;4.30;99.90;;;;;;5088376;28;20051;-43
2022/03/02 05:50:52;;;;;;;50.45;28.98;;;4.40;99.90;;;;;;5087724;28;20123;-45
2022/03/02 05:53:17;;;;;;;50.90;29.55;;;4.40;99.90;;;;;;5092871;28;20493;-47
2022/03/02 05:55:43;;;;;;;48.92;30.08;;;4.40;99.90;;;;;;5093713;28;20035;-45
2022/03/02 05:58:09;;;;;;;51.38;30.00;;;4.20;99.90;;;;;;5075547;28;20054;-48
2022/03/02 06:00:34;;;;;;;56.08;31.00;;;4.20;99.90;;;;;;5093412;28;20039;-44
2022/03/02 06:03:00;;;;;;;52.28;29.45;;;4.20;99.90;;;;;;5093746;28;20032;-46
2022/03/02 06:05:26;;;;;;;53.90;30.15;;;4.40;99.90;;;;;;5093390;28;20068;-44
2022/03/02 06:07:51;;;;;;;55.95;31.83;;;4.30;99.90;;;;;;5093279;28;20323;-46
2022/03/02 06:10:18;;;;;;;54.25;29.73;;;4.20;99.90;;;;;;5092941;28;20054;-45
2022/03/02 06:12:44;;;;;;;57.25;32.42;;;4.20;99.90;;;;;;5093296;28;20065;-44
2022/03/02 06:15:12;;;;;;;55.88;30.63;;;4.00;99.90;;;;;;5093134;28;20040;-44
2022/03/02 06:17:38;;;;;;;55.70;32.50;;;3.90;99.90;;;;;;5093430;28;20072;-44
2022/03/02 06:20:05;;;;;;;60.25;32.35;;;3.90;99.90;;;;;;5093033;28;20269;-44
2022/03/02 06:22:31;;;;;;;53.72;32.20;;;3.80;99.90;;;;;;5092113;28;20513;-43
2022/03/02 06:24:58;;;;;;;56.28;30.73;;;3.90;99.90;;;;;;5093116;28;20036;-43
2022/03/02 06:27:24;;;;;;;55.63;32.22;;;3.80;99.90;;;;;;5093300;28;20043;-45
2022/03/02 06:29:49;;;;;;;58.80;32.38;;;4.00;99.90;;;;;;5092820;28;20383;-42
2022/03/02 06:32:15;;;;;;;58.00;33.30;;;3.70;99.90;;;;;;5089210;28;20043;-43
2022/03/02 06:34:42;;;;;;;57.22;32.75;;;3.80;99.90;;;;;;5092413;28;20075;-44
2022/03/02 06:37:08;;;;;;;55.08;33.10;;;3.80;99.90;;;;;;5092680;28;20040;-43
2022/03/02 06:39:34;;;;;;;57.78;32.17;;;3.80;99.90;;;;;;5092971;28;20284;-45
2022/03/02 06:42:22;;;;;;;55.85;32.28;;;3.70;99.90;;;;;;5092545;28;20555;-45
2022/03/02 06:44:55;;;;;;;55.20;32.67;;;3.80;99.90;;;;;;5092863;28;20048;-44
2022/03/02 06:47:52;;;;;;;54.78;31.73;;;3.70;99.90;;;;;;5093040;28;20051;-42
2022/03/02 06:50:23;;;;;;;58.17;32.13;;;3.70;99.90;;;;;;5076591;28;20102;-41
2022/03/02 06:52:53;;;;;;;55.85;32.78;;;3.80;99.90;;;;;;5091860;28;20142;-42
2022/03/02 06:55:19;;;;;;;59.08;32.75;;;3.80;99.90;;;;;;5092573;28;20032;-42
2022/03/02 06:58:08;;;;;;;53.53;30.58;;;3.70;99.90;;;;;;5092579;28;20036;-43
2022/03/02 07:00:34;;;;;;;56.35;32.88;;;3.80;99.90;;;;;;5089838;28;20047;-43
2022/03/02 07:03:09;;;;;;;58.63;32.08;;;3.90;99.90;;;;;;5088368;28;20074;-42
2022/03/02 07:05:35;;;;;;;56.38;32.60;;;3.90;99.90;;;;;;5087855;28;20040;-44
2022/03/02 07:08:03;;;;;;;57.17;33.55;;;3.80;99.90;;;;;;5088589;28;20027;-45
2022/03/02 07:10:33;;;;;;;61.25;33.88;;;3.90;99.90;;;;;;5088106;28;20040;-43
2022/03/02 07:13:00;;;;;;;57.95;33.20;;;3.90;99.90;;;;;;5088551;28;20038;-45
2022/03/02 07:15:25;;;;;;;57.58;32.30;;;3.80;99.90;;;;;;5086139;28;20043;-44
2022/03/02 07:17:51;;;;;;;56.78;32.13;;;3.80;99.90;;;;;;5086766;28;20082;-43
2022/03/02 07:20:17;;;;;;;57.90;32.80;;;3.90;99.90;;;;;;5081837;28;20067;-42
2022/03/02 07:22:50;;;;;;;53.67;31.55;;;4.10;99.90;;;;;;5079364;28;20085;-43
2022/03/02 07:25:21;;;;;;;57.05;32.65;;;4.10;99.90;;;;;;5086784;28;20086;-44
2022/03/02 07:27:49;;;;;;;53.97;31.75;;;4.20;99.90;;;;;;5084905;28;20071;-42
2022/03/02 07:30:15;;;;;;;55.50;32.65;;;4.20;99.90;;;;;;5081930;28;20047;-43
2022/03/02 07:32:45;;;;;;;59.17;32.65;;;4.30;99.90;;;;;;5080574;28;20119;-44
2022/03/02 07:35:13;;;;;;;54.67;31.48;;;4.30;99.90;;;;;;5085015;28;20129;-43
2022/03/02 07:37:39;;;;;;;56.15;32.78;;;4.30;99.90;;;;;;5081294;28;20036;-42
2022/03/02 07:40:06;;;;;;;53.78;30.67;;;4.30;99.90;;;;;;5080530;28;20131;-44
2022/03/02 07:42:32;;;;;;;51.97;31.23;;;4.40;99.90;;;;;;5083369;28;20047;-44
2022/03/02 07:44:58;;;;;;;53.40;31.52;;;4.40;99.90;;;;;;5083617;28;20554;-44
2022/03/02 07:47:24;;;;;;;55.10;30.58;;;4.40;99.90;;;;;;5078699;28;20398;-44
2022/03/02 07:49:51;;;;;;;54.20;31.85;;;4.40;99.90;;;;;;5078139;28;20101;-46
2022/03/02 07:52:17;;;;;;;54.47;29.85;;;4.50;99.90;;;;;;5076394;28;20050;-46
2022/03/02 07:54:46;;;;;;;56.97;31.80;;;4.40;99.90;;;;;;5078157;28;20101;-44
2022/03/02 07:57:14;;;;;;;53.03;31.50;;;4.50;99.90;;;;;;5076016;28;20371;-47
2022/03/02 07:59:42;;;;;;;52.38;30.75;;;4.60;99.90;;;;;;5077073;28;20127;-45
2022/03/02 08:02:10;;;;;;;51.70;31.17;;;4.70;99.90;;;;;;5075365;28;20047;-43
2022/03/02 08:04:37;;;;;;;50.72;29.58;;;4.70;99.90;;;;;;5077857;28;20048;-46
2022/03/02 08:07:04;;;;;;;50.28;29.40;;;4.80;99.90;;;;;;5076826;28;20059;-46
2022/03/02 08:09:31;;;;;;;49.72;28.52;;;4.90;99.90;;;;;;5075507;28;20040;-45
2022/03/02 08:12:01;;;;;;;48.17;29.83;;;4.90;99.90;;;;;;5077408;28;20124;-43
2022/03/02 08:14:28;;;;;;;50.10;29.42;;;4.90;99.90;;;;;;5075686;28;20073;-47
2022/03/02 08:16:54;;;;;;;50.65;29.65;;;4.90;99.90;;;;;;5077799;28;20434;-49
2022/03/02 08:19:22;;;;;;;54.20;29.38;;;4.90;99.90;;;;;;5077312;28;20112;-45
2022/03/02 08:21:55;;;;;;;50.47;30.08;;;5.00;99.90;;;;;;5075218;28;20189;-44
2022/03/02 08:24:25;;;;;;;50.42;29.00;;;5.10;99.90;;;;;;5077712;28;20570;-45
2022/03/02 08:26:54;;;;;;;49.05;27.98;;;5.20;99.90;;;;;;5076931;28;20107;-43
2022/03/02 08:29:20;;;;;;;49.30;27.33;;;5.20;99.90;;;;;;5075646;28;20044;-45
2022/03/02 08:31:48;;;;;;;48.53;27.40;;;5.10;99.90;;;;;;5076751;28;20089;-47
2022/03/02 08:34:14;;;;;;;47.35;27.15;;;5.50;99.90;;;;;;5076927;28;20056;-46
2022/03/02 08:36:43;;;;;;;44.63;27.38;;;5.40;99.90;;;;;;5077194;28;20036;-43
2022/03/02 08:39:11;;;;;;;46.20;27.23;;;5.40;99.90;;;;;;5078992;28;20044;-45
2022/03/02 08:41:39;;;;;;;48.20;27.40;;;5.40;99.90;;;;;;5079583;28;20051;-45
2022/03/02 08:44:06;;;;;;;45.83;26.75;;;5.40;99.90;;;;;;5088024;28;20077;-44
2022/03/02 08:46:32;;;;;;;42.40;24.55;;;5.50;99.90;;;;;;5090430;28;20036;-43
2022/03/02 08:48:58;;;;;;;44.08;26.08;;;5.50;99.90;;;;;;5087369;28;20024;-45
2022/03/02 08:51:25;;;;;;;45.03;26.40;;;5.70;99.90;;;;;;5089072;28;20444;-44
2022/03/02 08:53:55;;;;;;;43.88;24.55;;;5.60;99.90;;;;;;5089310;28;20036;-45
2022/03/02 08:56:21;;;;;;;42.97;25.58;;;5.60;99.90;;;;;;5086925;28;20067;-45
2022/03/02 08:58:48;;;;;;;40.95;24.25;;;5.60;99.90;;;;;;5089267;28;20032;-46
2022/03/02 09:01:15;;;;;;;42.00;24.60;;;5.80;99.90;;;;;;5087077;28;20047;-44
2022/03/02 09:03:46;;;;;;;42.90;24.30;;;5.70;99.90;;;;;;5089170;28;20050;-44
2022/03/02 09:06:13;;;;;;;40.45;24.13;;;6.00;99.90;;;;;;5086625;28;20036;-45
2022/03/02 09:08:40;;;;;;;38.65;23.23;;;5.90;99.90;;;;;;5083876;28;20043;-44
2022/03/02 09:11:07;;;;;;;44.85;23.63;;;6.00;99.90;;;;;;5087983;28;20036;-45
2022/03/02 09:13:34;;;;;;;41.83;23.48;;;6.00;99.90;;;;;;5088896;28;20042;-45
2022/03/02 09:16:00;;;;;;;37.97;22.83;;;6.10;99.90;;;;;;5088206;28;20051;-44
2022/03/02 09:18:25;;;;;;;42.85;24.02;;;6.10;99.90;;;;;;5087141;28;20036;-47
2022/03/02 09:20:57;;;;;;;39.88;23.75;;;6.20;99.90;;;;;;5089741;28;20055;-44
2022/03/02 09:23:28;;;;;;;37.45;22.30;;;6.30;99.90;;;;;;5088899;28;20043;-44
2022/03/02 09:25:58;;;;;;;35.45;21.33;;;6.40;99.90;;;;;;5089953;28;20344;-46
2022/03/02 09:28:28;;;;;;;37.30;21.52;;;6.30;99.90;;;;;;5090842;28;20052;-48
2022/03/02 09:30:54;;;;;;;39.63;22.63;;;6.30;99.90;;;;;;5090245;28;20047;-43
2022/03/02 09:33:22;;;;;;;37.53;22.35;;;6.30;99.90;;;;;;5087495;28;20044;-47
2022/03/02 09:35:50;;;;;;;38.50;22.23;;;6.30;99.90;;;;;;5094306;28;20047;-42
2022/03/02 09:38:18;;;;;;;44.58;24.17;;;6.40;99.90;;;;;;5089036;28;20051;-46
2022/03/02 09:40:48;;;;;;;44.17;24.77;;;6.30;99.90;;;;;;5078995;28;20106;-45
2022/03/02 09:43:19;;;;;;;37.33;23.08;;;6.30;99.90;;;;;;5082867;28;20051;-47
2022/03/02 09:45:48;;;;;;;40.00;24.42;;;6.30;99.90;;;;;;5076748;28;20120;-45
2022/03/02 09:48:28;;;;;;;40.85;23.88;;;6.30;99.90;;;;;;5077936;28;20068;-43
2022/03/02 09:50:59;;;;;;;37.80;22.88;;;6.30;99.90;;;;;;5082856;28;20398;-44
2022/03/02 09:53:29;;;;;;;38.72;22.33;;;6.40;99.90;;;;;;5080173;28;20072;-45
2022/03/02 09:55:56;;;;;;;38.88;22.73;;;6.40;99.90;;;;;;5075789;28;20433;-46
2022/03/02 09:58:24;;;;;;;38.60;21.70;;;6.50;99.90;;;;;;5082025;28;20040;-46
2022/03/02 10:00:54;;;;;;;42.15;22.98;;;6.50;99.90;;;;;;5078800;28;20044;-44
2022/03/02 10:03:20;;;;;;;36.92;22.67;;;6.60;99.90;;;;;;5083520;28;20072;-46
2022/03/02 10:05:48;;;;;;;37.85;23.15;;;6.50;99.90;;;;;;5086769;28;20511;-49
2022/03/02 10:08:19;;;;;;;37.78;23.15;;;6.60;99.90;;;;;;5084174;28;20040;-45
2022/03/02 10:10:49;;;;;;;37.03;22.48;;;6.60;99.90;;;;;;5082430;28;20628;-47
2022/03/02 10:13:17;;;;;;;37.63;21.45;;;6.80;99.90;;;;;;5084808;28;20036;-47
2022/03/02 10:15:44;;;;;;;36.35;21.92;;;6.90;99.90;;;;;;5084605;28;20128;-46
2022/03/02 10:18:12;;;;;;;37.95;22.13;;;7.00;99.90;;;;;;5081587;28;20036;-44
2022/03/02 10:20:41;;;;;;;37.67;22.70;;;7.20;99.90;;;;;;5088108;28;20131;-47
2022/03/02 10:23:26;;;;;;;36.63;21.88;;;7.20;99.90;;;;;;5093016;28;20494;-45
2022/03/02 10:26:03;;;;;;;41.55;23.30;;;7.40;99.90;;;;;;5090878;28;20098;-46
2022/03/02 10:28:37;;;;;;;36.00;22.15;;;7.50;99.90;;;;;;5090313;28;20036;-44
2022/03/02 10:31:15;;;;;;;40.67;22.52;;;7.80;99.90;;;;;;5092713;28;20494;-46
2022/03/02 10:33:47;;;;;;;37.47;22.50;;;7.70;99.90;;;;;;5090296;28;21002;-45
2022/03/02 10:36:14;;;;;;;36.35;21.38;;;7.90;99.90;;;;;;5093240;28;20142;-48
2022/03/02 10:38:47;;;;;;;37.50;21.40;;;8.10;99.90;;;;;;5092005;28;20028;-44
2022/03/02 10:41:14;;;;;;;33.17;20.40;;;8.20;99.90;;;;;;5092313;28;20036;-49
2022/03/02 10:43:53;;;;;;;32.22;20.00;;;8.20;99.90;;;;;;5092823;28;20123;-44
2022/03/02 10:46:21;;;;;;;31.65;20.23;;;8.60;99.90;;;;;;5092548;28;20133;-47
2022/03/02 10:48:59;;;;;;;33.05;21.27;;;8.90;99.90;;;;;;5092618;28;20075;-46
2022/03/02 10:51:27;;;;;;;31.55;19.33;;;8.90;99.90;;;;;;5092626;28;20097;-48
2022/03/02 10:53:57;;;;;;;32.95;19.80;;;9.30;99.90;;;;;;5092469;28;20040;-47
2022/03/02 10:56:26;;;;;;;33.03;19.27;;;9.60;99.90;;;;;;5092218;28;20032;-47
2022/03/02 10:58:54;;;;;;;29.90;17.90;;;9.70;99.90;;;;;;5092560;28;20169;-45
2022/03/02 11:01:21;;;;;;;26.13;16.42;;;9.60;99.90;;;;;;5092565;28;20048;-47
2022/03/02 11:03:47;;;;;;;26.65;16.30;;;9.90;99.90;;;;;;5085553;28;20074;-49
2022/03/02 11:06:14;;;;;;;26.45;16.38;;;9.90;99.90;;;;;;5087838;28;20081;-48
2022/03/02 11:08:42;;;;;;;26.17;16.15;;;10.00;99.90;;;;;;5090838;28;20521;-45
2022/03/02 11:11:09;;;;;;;26.85;15.05;;;9.90;99.90;;;;;;5087816;28;20095;-44
2022/03/02 11:13:35;;;;;;;21.60;13.82;;;10.10;99.90;;;;;;5078497;28;20463;-50
2022/03/02 11:16:04;;;;;;;24.45;14.45;;;10.00;99.90;;;;;;5080248;28;20040;-46
2022/03/02 11:18:40;;;;;;;22.80;14.35;;;10.20;99.90;;;;;;5080477;28;20149;-47
2022/03/02 11:21:21;;;;;;;24.67;15.65;;;10.30;99.90;;;;;;5080842;28;20060;-44
2022/03/02 11:23:56;;;;;;;25.30;14.55;;;10.40;99.90;;;;;;5079927;28;20483;-47
2022/03/02 11:26:27;;;;;;;28.08;17.23;;;10.40;99.90;;;;;;5080317;28;20079;-47
2022/03/02 11:28:57;;;;;;;26.73;16.63;;;10.30;99.90;;;;;;5108904;27;20079;-46
2022/03/02 11:31:29;;;;;;;26.77;16.60;;;10.50;99.90;;;;;;5079010;28;20036;-47
2022/03/02 11:34:15;;;;;;;25.00;15.93;;;10.50;99.90;;;;;;5088624;28;20043;-44
2022/03/02 11:36:58;;;;;;;29.85;14.95;;;10.60;99.40;;;;;;5076125;28;20032;-48
2022/03/02 11:39:26;;;;;;;25.65;15.40;;;10.70;99.90;;;;;;5079387;28;20442;-45
2022/03/02 11:41:57;;;;;;;27.88;16.42;;;10.70;99.90;;;;;;5079727;28;20044;-49
2022/03/02 11:44:32;;;;;;;25.73;15.75;;;11.20;97.70;;;;;;5078940;28;20044;-44
2022/03/02 11:47:03;;;;;;;23.85;15.50;;;11.40;99.90;;;;;;5079520;28;20036;-46
2022/03/02 11:49:55;;;;;;;22.95;14.27;;;11.60;97.50;;;;;;5081566;28;20040;-47
2022/03/02 11:52:24;;;;;;;24.23;14.32;;;11.90;94.40;;;;;;5085620;28;20038;-48
2022/03/02 11:54:51;;;;;;;23.23;14.38;;;12.00;92.10;;;;;;5082680;28;20101;-45
2022/03/02 11:57:19;;;;;;;23.25;15.00;;;12.10;92.90;;;;;;5083684;28;20032;-47
2022/03/02 11:59:46;;;;;;;26.63;15.63;;;12.10;91.50;;;;;;5089229;28;20048;-48
2022/03/02 12:02:13;;;;;;;21.95;13.48;;;12.30;97.00;;;;;;5090638;28;20067;-47
2022/03/02 12:04:40;;;;;;;24.25;13.80;;;12.50;95.40;;;;;;5090913;28;20035;-45
2022/03/02 12:07:08;;;;;;;21.38;14.00;;;12.70;93.20;;;;;;5090918;28;20044;-45
2022/03/02 12:09:36;;;;;;;22.92;13.40;;;12.50;91.30;;;;;;5091265;28;20024;-44
2022/03/02 12:12:16;;;;;;;23.17;12.98;;;12.60;88.30;;;;;;5090614;28;20547;-50
2022/03/02 12:14:51;;;;;;;23.27;13.88;;;12.30;83.30;;;;;;5089828;28;20032;-45
2022/03/02 12:17:20;;;;;;;21.83;13.02;;;12.40;87.00;;;;;;5089725;28;20051;-45
2022/03/02 12:19:54;;;;;;;23.30;14.88;;;12.40;87.00;;;;;;5088920;28;20091;-46
2022/03/02 12:22:20;;;;;;;21.25;14.02;;;12.30;91.00;;;;;;5088204;28;20671;-43
2022/03/02 12:24:48;;;;;;;21.58;14.20;;;12.50;93.20;;;;;;5088967;28;20085;-45
2022/03/02 12:27:16;;;;;;;24.38;14.40;;;12.70;91.90;;;;;;5090879;28;20047;-47
2022/03/02 12:29:45;;;;;;;23.60;14.82;;;12.90;92.10;;;;;;5089344;28;20125;-45
2022/03/02 12:32:17;;;;;;;22.08;13.82;;;13.10;93.30;;;;;;5090663;28;20115;-46
2022/03/02 12:34:52;;;;;;;23.27;14.27;;;13.10;90.40;;;;;;5091083;28;20085;-48
2022/03/02 12:37:20;;;;;;;24.08;14.68;;;13.20;90.00;;;;;;5090668;28;20039;-47
2022/03/02 12:39:47;;;;;;;20.33;13.35;;;13.10;89.00;;;;;;5090545;28;20111;-48
2022/03/02 12:42:14;;;;;;;22.75;13.63;;;13.20;80.40;;;;;;5090153;28;20044;-48